createdAt,value
2019-02-16T00:00:50.942Z,6.40
2019-02-16T00:03:20.086Z,6.30
2019-02-16T00:05:49.241Z,6.30
2019-02-16T00:08:18.431Z,6.30
2019-02-16T00:10:47.553Z,6.30
2019-02-16T00:13:16.788Z,6.20
2019-02-16T00:15:45.994Z,6.10
2019-02-16T00:18:15.150Z,6.10
2019-02-16T00:20:44.289Z,6.10
2019-02-16T00:23:13.481Z,6.10
2019-02-16T00:25:42.646Z,6.10
2019-02-16T00:28:11.818Z,6.10
2019-02-16T00:30:41.034Z,6.00
2019-02-16T00:33:10.190Z,6.00
2019-02-16T00:35:39.364Z,6.00
2019-02-16T00:38:08.578Z,6.00
2019-02-16T00:40:37.710Z,6.00
2019-02-16T00:43:06.844Z,6.00
2019-02-16T00:45:36.004Z,6.00
2019-02-16T00:48:05.222Z,6.00
2019-02-16T00:50:34.446Z,6.00
2019-02-16T00:53:03.605Z,5.90
2019-02-16T00:55:32.738Z,5.90
2019-02-16T00:58:01.965Z,5.90
2019-02-16T01:00:31.121Z,6.00
2019-02-16T01:03:00.337Z,6.00
2019-02-16T01:05:29.483Z,6.00
2019-02-16T01:07:58.681Z,6.00
2019-02-16T01:10:27.845Z,6.00
2019-02-16T01:12:57.042Z,6.00
2019-02-16T01:15:26.194Z,6.00
2019-02-16T01:17:55.337Z,5.90
2019-02-16T01:20:24.477Z,5.90
2019-02-16T01:22:53.631Z,5.90
2019-02-16T01:25:22.844Z,5.90
2019-02-16T01:27:52.030Z,5.90
2019-02-16T01:30:21.198Z,5.90
2019-02-16T01:32:50.362Z,5.90
2019-02-16T01:35:19.533Z,5.80
2019-02-16T01:37:48.702Z,5.70
2019-02-16T01:40:17.862Z,5.70
2019-02-16T01:42:47.079Z,5.70
2019-02-16T01:45:16.338Z,5.60
2019-02-16T01:47:45.509Z,5.60
2019-02-16T01:50:14.766Z,5.60
2019-02-16T01:52:43.907Z,5.60
2019-02-16T01:55:13.165Z,5.60
2019-02-16T01:57:42.314Z,5.60
2019-02-16T02:00:11.790Z,5.70
2019-02-16T02:02:40.937Z,5.70
2019-02-16T02:05:10.134Z,5.70
2019-02-16T02:07:39.546Z,5.70
2019-02-16T02:10:09.650Z,5.70
2019-02-16T02:12:38.837Z,5.70
2019-02-16T02:15:08.781Z,5.70
2019-02-16T02:17:37.941Z,5.70
2019-02-16T02:20:07.429Z,5.70
2019-02-16T02:22:36.597Z,5.70
2019-02-16T02:25:07.153Z,5.70
2019-02-16T02:27:36.342Z,5.70
2019-02-16T02:30:06.083Z,5.70
2019-02-16T02:32:35.298Z,5.70
2019-02-16T02:35:04.900Z,5.70
2019-02-16T02:37:34.067Z,5.70
2019-02-16T02:40:03.226Z,5.60
2019-02-16T02:42:32.381Z,5.70
2019-02-16T02:45:01.617Z,5.60
2019-02-16T02:47:31.139Z,5.50
2019-02-16T02:50:00.274Z,5.50
2019-02-16T02:52:29.425Z,5.40
2019-02-16T02:54:58.654Z,5.50
2019-02-16T02:57:27.838Z,5.50
2019-02-16T02:59:56.971Z,5.50
2019-02-16T03:02:26.208Z,5.50
2019-02-16T03:04:55.466Z,5.50
2019-02-16T03:07:24.669Z,5.50
2019-02-16T03:09:53.873Z,5.40
2019-02-16T03:12:23.050Z,5.40
2019-02-16T03:14:52.217Z,5.40
2019-02-16T03:17:21.454Z,5.50
2019-02-16T03:19:50.637Z,5.50
2019-02-16T03:22:19.811Z,5.50
2019-02-16T03:24:48.951Z,5.60
2019-02-16T03:27:54.192Z,5.50
2019-02-16T03:30:57.035Z,5.40
2019-02-16T03:33:47.507Z,5.40
2019-02-16T03:37:02.542Z,5.30
2019-02-16T03:39:35.430Z,5.30
2019-02-16T03:42:04.574Z,5.40
2019-02-16T03:44:33.698Z,5.30
2019-02-16T03:47:02.842Z,5.30
2019-02-16T03:49:31.986Z,5.20
2019-02-16T03:52:01.247Z,5.20
2019-02-16T03:54:30.386Z,5.20
2019-02-16T03:56:59.577Z,5.20
2019-02-16T03:59:28.870Z,5.20
2019-02-16T04:01:58.129Z,5.20
2019-02-16T04:04:27.355Z,5.20
2019-02-16T04:06:56.550Z,5.20
2019-02-16T04:09:25.701Z,5.20
2019-02-16T04:11:54.865Z,5.20
2019-02-16T04:14:24.031Z,5.10
2019-02-16T04:16:53.198Z,5.20
2019-02-16T04:19:22.396Z,5.30
2019-02-16T04:21:51.597Z,5.30
2019-02-16T04:24:20.736Z,5.30
2019-02-16T04:26:49.924Z,5.30
2019-02-16T04:29:19.062Z,5.30
2019-02-16T04:31:48.223Z,5.30
2019-02-16T04:34:17.494Z,5.30
2019-02-16T04:36:46.658Z,5.30
2019-02-16T04:39:15.953Z,5.30
2019-02-16T04:41:45.130Z,5.30
2019-02-16T04:44:14.274Z,5.20
2019-02-16T04:46:43.485Z,5.20
2019-02-16T04:49:12.690Z,5.20
2019-02-16T04:51:41.827Z,5.20
2019-02-16T04:54:10.945Z,5.20
2019-02-16T04:56:40.112Z,5.20
2019-02-16T04:59:09.314Z,5.20
2019-02-16T05:01:38.564Z,5.10
2019-02-16T05:04:07.702Z,5.10
2019-02-16T05:06:36.871Z,5.10
2019-02-16T05:09:07.607Z,5.10
2019-02-16T05:11:36.747Z,5.10
2019-02-16T05:14:05.886Z,5.00
2019-02-16T05:16:35.077Z,5.00
2019-02-16T05:19:04.218Z,5.00
2019-02-16T05:21:33.399Z,5.00
2019-02-16T05:24:02.645Z,5.00
2019-02-16T05:26:31.767Z,5.00
2019-02-16T05:29:00.947Z,5.10
2019-02-16T05:31:30.107Z,5.10
2019-02-16T05:33:59.226Z,5.10
2019-02-16T05:36:28.406Z,5.10
2019-02-16T05:38:57.629Z,5.20
2019-02-16T05:41:26.763Z,5.20
2019-02-16T05:43:56.054Z,5.20
2019-02-16T05:46:25.198Z,5.30
2019-02-16T05:48:54.370Z,5.30
2019-02-16T05:51:23.606Z,5.30
2019-02-16T05:53:52.762Z,5.30
2019-02-16T05:56:21.923Z,5.30
2019-02-16T05:58:51.065Z,5.30
2019-02-16T06:01:20.229Z,5.20
2019-02-16T06:03:49.354Z,5.30
2019-02-16T06:06:18.481Z,5.30
2019-02-16T06:08:47.741Z,5.30
2019-02-16T06:11:16.883Z,5.30
2019-02-16T06:13:48.910Z,5.40
2019-02-16T06:16:18.067Z,5.40
2019-02-16T06:18:48.106Z,5.50
2019-02-16T06:21:17.280Z,5.50
2019-02-16T06:23:48.110Z,5.50
2019-02-16T06:26:17.388Z,5.50
2019-02-16T06:28:47.652Z,5.50
2019-02-16T06:31:16.838Z,5.50
2019-02-16T06:33:46.110Z,5.50
2019-02-16T06:36:37.438Z,5.50
2019-02-16T06:39:06.783Z,5.50
2019-02-16T06:41:35.934Z,5.50
2019-02-16T06:44:05.183Z,5.50
2019-02-16T06:46:34.320Z,5.50
2019-02-16T06:49:03.467Z,5.50
2019-02-16T06:51:32.707Z,5.50
2019-02-16T06:54:01.855Z,5.50
2019-02-16T06:56:38.719Z,5.50
2019-02-16T06:59:07.889Z,5.50
2019-02-16T07:01:37.010Z,5.60
2019-02-16T07:04:06.170Z,5.60
2019-02-16T07:06:35.451Z,5.70
2019-02-16T07:09:05.628Z,5.80
2019-02-16T07:11:34.825Z,5.80
2019-02-16T07:14:03.996Z,5.80
2019-02-16T07:16:54.397Z,5.90
2019-02-16T07:19:29.802Z,5.90
2019-02-16T07:21:58.958Z,5.90
2019-02-16T07:24:28.123Z,5.90
2019-02-16T07:26:57.374Z,5.90
2019-02-16T07:29:26.580Z,6.00
2019-02-16T07:31:55.715Z,6.00
2019-02-16T07:34:24.887Z,6.10
2019-02-16T07:36:54.066Z,6.10
2019-02-16T07:39:23.242Z,6.20
2019-02-16T07:41:52.485Z,6.30
2019-02-16T07:44:39.444Z,6.40
2019-02-16T07:47:19.553Z,6.40
2019-02-16T07:49:57.354Z,6.50
2019-02-16T07:52:34.738Z,6.60
2019-02-16T07:55:20.707Z,6.60
2019-02-16T07:58:15.154Z,6.70
2019-02-16T08:00:56.620Z,6.80
2019-02-16T08:03:31.154Z,6.90
2019-02-16T08:06:27.906Z,7.00
2019-02-16T08:09:07.365Z,7.10
2019-02-16T08:11:58.299Z,7.10
2019-02-16T08:14:37.816Z,7.10
2019-02-16T08:17:19.806Z,7.30
2019-02-16T08:20:23.085Z,7.30
2019-02-16T08:23:10.115Z,7.40
2019-02-16T08:26:07.325Z,7.60
2019-02-16T08:28:58.499Z,7.60
2019-02-16T08:31:37.358Z,7.70
2019-02-16T08:34:37.457Z,7.80
2019-02-16T08:37:28.653Z,7.90
2019-02-16T08:40:13.211Z,8.00
2019-02-16T08:43:04.457Z,8.10
2019-02-16T08:45:46.226Z,8.10
2019-02-16T08:48:34.451Z,8.30
2019-02-16T08:51:14.120Z,8.30
2019-02-16T08:53:53.609Z,8.40
2019-02-16T08:56:57.186Z,8.40
2019-02-16T08:59:53.542Z,8.50
2019-02-16T09:02:33.969Z,8.60
2019-02-16T09:05:13.558Z,8.60
2019-02-16T09:08:04.016Z,8.80
2019-02-16T09:10:57.388Z,8.80
2019-02-16T09:13:44.445Z,8.90
2019-02-16T09:16:26.607Z,9.00
2019-02-16T09:19:14.870Z,9.10
2019-02-16T09:22:15.456Z,9.10
2019-02-16T09:24:53.754Z,9.20
2019-02-16T09:27:40.681Z,9.30
2019-02-16T09:30:20.486Z,9.40
2019-02-16T09:33:11.722Z,9.50
2019-02-16T09:36:00.046Z,9.50
2019-02-16T09:38:37.594Z,9.60
2019-02-16T09:41:24.484Z,9.70
2019-02-16T09:44:24.719Z,9.80
2019-02-16T09:47:12.914Z,9.80
2019-02-16T09:49:51.351Z,9.90
2019-02-16T09:52:26.990Z,9.90
2019-02-16T09:55:06.681Z,10.00
2019-02-16T09:58:07.279Z,10.10
2019-02-16T10:00:51.363Z,10.20
2019-02-16T10:03:35.577Z,10.20
2019-02-16T10:06:29.803Z,10.30
2019-02-16T10:09:13.414Z,10.40
2019-02-16T10:12:11.733Z,10.50
2019-02-16T10:14:58.738Z,10.50
2019-02-16T10:17:39.305Z,10.60
2019-02-16T10:20:34.286Z,10.70
2019-02-16T10:23:34.758Z,10.80
2019-02-16T10:26:10.485Z,10.80
2019-02-16T10:28:47.698Z,10.90
2019-02-16T10:31:38.994Z,11.00
2019-02-16T10:34:26.208Z,11.00
2019-02-16T10:37:03.598Z,11.00
2019-02-16T10:39:54.659Z,11.10
2019-02-16T10:42:36.762Z,11.20
2019-02-16T10:45:19.942Z,11.30
2019-02-16T10:48:07.118Z,11.40
2019-02-16T10:50:43.583Z,11.50
2019-02-16T10:53:31.989Z,11.50
2019-02-16T10:56:16.863Z,11.60
2019-02-16T10:59:14.102Z,11.60
2019-02-16T11:02:01.098Z,11.70
2019-02-16T11:04:52.234Z,11.70
2019-02-16T11:07:34.874Z,11.70
2019-02-16T11:10:14.043Z,11.80
2019-02-16T11:12:55.903Z,11.80
2019-02-16T11:15:44.416Z,11.80
2019-02-16T11:18:36.498Z,11.80
2019-02-16T11:21:33.777Z,11.90
2019-02-16T11:24:20.593Z,11.90
2019-02-16T11:27:10.606Z,11.90
2019-02-16T11:29:57.634Z,11.90
2019-02-16T11:32:44.818Z,12.00
2019-02-16T11:35:26.248Z,12.00
2019-02-16T11:38:13.636Z,12.00
2019-02-16T11:41:04.866Z,12.00
2019-02-16T11:44:03.222Z,12.10
2019-02-16T11:47:09.626Z,12.10
2019-02-16T11:49:57.802Z,12.10
2019-02-16T11:52:44.611Z,12.10
2019-02-16T11:55:24.720Z,12.10
2019-02-16T11:58:14.928Z,12.10
2019-02-16T12:01:15.506Z,12.10
2019-02-16T12:04:12.634Z,12.10
2019-02-16T12:06:52.057Z,12.10
2019-02-16T12:09:31.889Z,12.20
2019-02-16T12:12:11.758Z,12.20
2019-02-16T12:14:57.226Z,12.20
2019-02-16T12:17:44.278Z,12.20
2019-02-16T12:20:33.650Z,12.20
2019-02-16T12:23:19.220Z,12.30
2019-02-16T12:25:57.146Z,12.30
2019-02-16T12:28:34.287Z,12.40
2019-02-16T12:31:31.572Z,12.40
2019-02-16T12:34:25.650Z,12.40
2019-02-16T12:37:19.339Z,12.50
2019-02-16T12:40:03.706Z,12.50
2019-02-16T12:42:50.553Z,12.50
2019-02-16T12:45:30.239Z,12.50
2019-02-16T12:48:18.086Z,12.60
2019-02-16T12:51:18.461Z,12.60
2019-02-16T12:54:05.332Z,12.60
2019-02-16T12:56:59.726Z,12.70
2019-02-16T12:59:54.022Z,12.80
2019-02-16T13:02:54.466Z,12.80
2019-02-16T13:05:39.009Z,12.90
2019-02-16T13:08:12.224Z,13.00
2019-02-16T13:10:57.379Z,13.00
2019-02-16T13:13:44.289Z,13.10
2019-02-16T13:16:41.768Z,13.10
2019-02-16T13:19:35.945Z,13.10
2019-02-16T13:22:27.400Z,13.20
2019-02-16T13:25:02.398Z,13.20
2019-02-16T13:27:56.866Z,13.20
2019-02-16T13:30:38.301Z,13.20
2019-02-16T13:33:27.497Z,13.20
2019-02-16T13:36:18.471Z,13.20
2019-02-16T13:39:06.734Z,13.30
2019-02-16T13:42:04.382Z,13.30
2019-02-16T13:44:55.435Z,13.30
2019-02-16T13:47:46.430Z,13.40
2019-02-16T13:50:23.074Z,13.40
2019-02-16T13:53:11.291Z,13.30
2019-02-16T13:56:05.776Z,13.30
2019-02-16T13:58:47.730Z,13.30
2019-02-16T14:01:30.680Z,13.30
2019-02-16T14:04:16.642Z,13.20
2019-02-16T14:07:07.633Z,13.20
2019-02-16T14:09:58.870Z,13.20
2019-02-16T14:12:42.105Z,13.20
2019-02-16T14:15:21.170Z,13.20
2019-02-16T14:17:51.663Z,13.20
2019-02-16T14:20:21.019Z,13.20
2019-02-16T14:22:50.330Z,13.20
2019-02-16T14:25:24.982Z,13.20
2019-02-16T14:27:54.186Z,13.20
2019-02-16T14:30:23.328Z,13.20
2019-02-16T14:32:52.514Z,13.20
2019-02-16T14:35:21.690Z,13.20
2019-02-16T14:38:08.698Z,13.20
2019-02-16T14:40:37.969Z,13.20
2019-02-16T14:43:07.126Z,13.10
2019-02-16T14:45:39.092Z,13.00
2019-02-16T14:48:08.266Z,13.00
2019-02-16T14:50:37.410Z,12.90
2019-02-16T14:53:06.586Z,12.90
2019-02-16T14:55:35.818Z,12.80
2019-02-16T14:58:05.000Z,12.80
2019-02-16T15:00:34.235Z,12.80
2019-02-16T15:03:03.465Z,12.80
2019-02-16T15:05:32.613Z,12.70
2019-02-16T15:08:01.823Z,12.70
2019-02-16T15:10:31.098Z,12.70
2019-02-16T15:13:00.282Z,12.60
2019-02-16T15:15:29.555Z,12.60
2019-02-16T15:17:58.779Z,12.60
2019-02-16T15:20:28.102Z,12.60
2019-02-16T15:22:57.273Z,12.50
2019-02-16T15:25:26.502Z,12.50
2019-02-16T15:27:55.681Z,12.40
2019-02-16T15:30:24.927Z,12.40
2019-02-16T15:32:54.186Z,12.30
2019-02-16T15:35:23.371Z,12.30
2019-02-16T15:37:52.536Z,12.20
2019-02-16T15:40:21.774Z,12.20
2019-02-16T15:42:51.049Z,12.20
2019-02-16T15:45:20.219Z,12.10
2019-02-16T15:47:49.418Z,12.10
2019-02-16T15:50:18.641Z,12.00
2019-02-16T15:52:47.862Z,12.00
2019-02-16T15:55:17.027Z,11.90
2019-02-16T15:57:46.163Z,11.90
2019-02-16T16:00:23.664Z,11.80
2019-02-16T16:02:52.874Z,11.80
2019-02-16T16:05:22.021Z,11.70
2019-02-16T16:07:58.877Z,11.70
2019-02-16T16:10:34.771Z,11.60
2019-02-16T16:13:22.037Z,11.50
2019-02-16T16:16:01.517Z,11.50
2019-02-16T16:18:55.530Z,11.40
2019-02-16T16:21:49.592Z,11.40
2019-02-16T16:24:37.954Z,11.30
2019-02-16T16:27:19.638Z,11.20
2019-02-16T16:30:07.008Z,11.20
2019-02-16T16:32:58.286Z,11.10
2019-02-16T16:35:46.102Z,11.00
2019-02-16T16:38:29.771Z,11.00
2019-02-16T16:41:21.054Z,11.00
2019-02-16T16:44:08.171Z,10.90
2019-02-16T16:46:59.471Z,10.80
2019-02-16T16:50:00.098Z,10.80
2019-02-16T16:53:00.295Z,10.70
2019-02-16T16:55:47.476Z,10.70
2019-02-16T16:58:34.407Z,10.70
2019-02-16T17:01:22.619Z,10.60
2019-02-16T17:04:29.213Z,10.60
2019-02-16T17:07:20.434Z,10.50
2019-02-16T17:10:14.667Z,10.50
2019-02-16T17:12:53.069Z,10.50
2019-02-16T17:15:41.322Z,10.40
2019-02-16T17:18:28.410Z,10.40
2019-02-16T17:21:25.741Z,10.40
2019-02-16T17:24:22.943Z,10.30
2019-02-16T17:27:14.182Z,10.30
2019-02-16T17:30:01.138Z,10.20
2019-02-16T17:32:48.251Z,10.30
2019-02-16T17:35:36.553Z,10.30
2019-02-16T17:38:29.841Z,10.30
2019-02-16T17:41:14.302Z,10.20
2019-02-16T17:43:55.734Z,10.20
2019-02-16T17:46:43.534Z,10.20
2019-02-16T17:49:28.632Z,10.10
2019-02-16T17:52:19.891Z,10.10
2019-02-16T17:55:08.122Z,10.10
2019-02-16T17:58:02.483Z,10.10
2019-02-16T18:01:02.581Z,10.10
2019-02-16T18:04:08.942Z,10.10
2019-02-16T18:06:55.902Z,10.00
2019-02-16T18:09:59.229Z,10.00
2019-02-16T18:12:53.248Z,10.00
2019-02-16T18:15:41.526Z,10.00
2019-02-16T18:18:22.162Z,10.00
2019-02-16T18:21:10.391Z,10.00
2019-02-16T18:24:10.791Z,9.90
2019-02-16T18:26:56.942Z,9.90
2019-02-16T18:29:54.002Z,9.90
2019-02-16T18:32:41.036Z,9.80
2019-02-16T18:35:47.990Z,9.80
2019-02-16T18:38:48.389Z,9.80
2019-02-16T18:41:35.334Z,9.80
2019-02-16T18:44:23.939Z,9.70
2019-02-16T18:47:12.118Z,9.70
2019-02-16T18:49:59.132Z,9.60
2019-02-16T18:53:02.718Z,9.60
2019-02-16T18:55:48.092Z,9.60
2019-02-16T18:58:42.597Z,9.60
2019-02-16T19:01:30.823Z,9.50
2019-02-16T19:04:18.026Z,9.50
2019-02-16T19:07:18.481Z,9.50
2019-02-16T19:09:58.128Z,9.50
2019-02-16T19:13:01.785Z,9.40
2019-02-16T19:16:02.178Z,9.40
2019-02-16T19:18:49.702Z,9.40
2019-02-16T19:21:28.310Z,9.30
2019-02-16T19:24:15.443Z,9.30
2019-02-16T19:27:16.230Z,9.20
2019-02-16T19:29:55.086Z,9.20
2019-02-16T19:32:40.284Z,9.10
2019-02-16T19:35:19.419Z,9.10
2019-02-16T19:38:04.066Z,9.00
2019-02-16T19:40:58.319Z,9.00
2019-02-16T19:43:58.833Z,8.90
2019-02-16T19:46:47.510Z,8.90
2019-02-16T19:49:32.826Z,8.90
2019-02-16T19:52:27.474Z,8.80
2019-02-16T19:55:21.445Z,8.80
2019-02-16T19:58:10.322Z,8.80
2019-02-16T20:01:01.311Z,8.80
2019-02-16T20:04:01.587Z,8.80
2019-02-16T20:06:43.514Z,8.80
2019-02-16T20:09:27.771Z,8.80
2019-02-16T20:12:16.054Z,8.80
2019-02-16T20:14:54.023Z,8.80
2019-02-16T20:17:31.121Z,8.80
2019-02-16T20:20:37.498Z,8.70
2019-02-16T20:23:43.876Z,8.70
2019-02-16T20:26:25.781Z,8.70
2019-02-16T20:29:04.543Z,8.70
2019-02-16T20:31:51.350Z,8.70
2019-02-16T20:34:33.333Z,8.70
2019-02-16T20:37:27.540Z,8.70
2019-02-16T20:40:21.822Z,8.70
2019-02-16T20:43:13.030Z,8.70
2019-02-16T20:46:10.778Z,8.70
2019-02-16T20:48:59.014Z,8.60
2019-02-16T20:51:53.195Z,8.70
2019-02-16T20:54:40.112Z,8.70
2019-02-16T20:57:18.289Z,8.60
2019-02-16T21:00:04.426Z,8.60
2019-02-16T21:02:51.372Z,8.60
2019-02-16T21:05:31.905Z,8.60
2019-02-16T21:08:18.775Z,8.60
2019-02-16T21:11:10.259Z,8.50
2019-02-16T21:13:57.984Z,8.50
2019-02-16T21:16:55.233Z,8.50
2019-02-16T21:19:42.374Z,8.50
2019-02-16T21:22:42.922Z,8.50
2019-02-16T21:25:29.545Z,8.50
2019-02-16T21:28:24.523Z,8.50
2019-02-16T21:31:18.312Z,8.40
2019-02-16T21:34:05.086Z,8.50
2019-02-16T21:36:48.661Z,8.40
2019-02-16T21:39:35.628Z,8.40
2019-02-16T21:42:30.099Z,8.40
2019-02-16T21:45:10.169Z,8.40
2019-02-16T21:47:57.270Z,8.50
2019-02-16T21:50:49.875Z,8.40
2019-02-16T21:53:32.253Z,8.40
2019-02-16T21:56:23.198Z,8.40
2019-02-16T21:59:18.882Z,8.50
2019-02-16T22:01:55.918Z,8.40
2019-02-16T22:04:34.794Z,8.40
2019-02-16T22:07:21.781Z,8.40
2019-02-16T22:10:03.509Z,8.40
2019-02-16T22:12:52.534Z,8.40
2019-02-16T22:15:22.114Z,8.50
2019-02-16T22:17:51.252Z,8.40
2019-02-16T22:20:20.410Z,8.40
2019-02-16T22:22:49.564Z,8.40
2019-02-16T22:25:21.208Z,8.40
2019-02-16T22:27:49.662Z,8.40
2019-02-16T22:30:18.906Z,8.40
2019-02-16T22:32:48.030Z,8.40
2019-02-16T22:35:17.239Z,8.30
2019-02-16T22:37:46.533Z,8.30
2019-02-16T22:40:15.721Z,8.30
2019-02-16T22:42:44.889Z,8.40
2019-02-16T22:45:14.250Z,8.30
2019-02-16T22:47:43.394Z,8.30
2019-02-16T22:50:12.814Z,8.30
2019-02-16T22:52:42.103Z,8.30
2019-02-16T22:55:11.268Z,8.40
2019-02-16T22:57:40.439Z,8.30
2019-02-16T23:00:27.546Z,8.30
2019-02-16T23:02:56.800Z,8.30
2019-02-16T23:05:25.997Z,8.40
2019-02-16T23:07:55.227Z,8.30
2019-02-16T23:10:24.383Z,8.30
2019-02-16T23:12:53.641Z,8.30
2019-02-16T23:15:22.806Z,8.40
2019-02-16T23:17:51.974Z,8.30
2019-02-16T23:20:21.194Z,8.30
2019-02-16T23:22:50.478Z,8.30
2019-02-16T23:25:19.671Z,8.30
2019-02-16T23:27:48.858Z,8.30
2019-02-16T23:30:18.003Z,8.20
2019-02-16T23:32:47.234Z,8.30
2019-02-16T23:35:16.418Z,8.30
2019-02-16T23:37:45.546Z,8.30
2019-02-16T23:40:14.669Z,8.20
2019-02-16T23:42:43.926Z,8.20
2019-02-16T23:45:13.146Z,8.20
2019-02-16T23:47:42.318Z,8.20
2019-02-16T23:50:11.470Z,8.10
2019-02-16T23:52:40.682Z,8.10
2019-02-16T23:55:10.186Z,8.10
2019-02-16T23:57:39.318Z,8.10
